AirNav   Duncan Aviation - Near you to keep you flying
 
 1697 users online  

6WA2 Gower Field Airport
Olympia, Washington, USA

GOING TO OLYMPIA?


FAA INFORMATION EFFECTIVE 04 NOVEMBER 2021

Location

FAA Identifier: 6WA2
Lat/Long: 47-06-41.3460N 122-49-16.4900W
47-06.689100N 122-49.274833W
47.1114850,-122.8212472
(estimated)
Elevation: 130 ft. / 40 m (estimated)
Variation: 20E (1985)
From city: 4 miles NE of OLYMPIA, WA
Time zone: UTC -7 (UTC -8 during Standard Time)
Zip code: 98516

Airport Operations

Airport use: Private use. Permission required prior to landing
Activation date: 06/1997
Control tower: no
ARTCC: SEATTLE CENTER
FSS: SEATTLE FLIGHT SERVICE STATION
Attendance: CONTINUOUS
Wind indicator: yes
Segmented circle: no
Lights: SS-SR

Airport Communications

WX ASOS at OLM (9 nm S): 135.725 (360-754-0781)
WX ASOS at TIW (14 nm NE): PHONE 253-858-6507
WX ASOS at TCM (14 nm E): PHONE 253-982-3434
WX ASOS at SHN (15 nm NW): 119.275 (360 426-6332)

Nearby radio navigation aids

VOR radial/distance  VOR name  Freq  Var
OLMr002/9.0OLYMPIA VORTAC113.4019E
SEAr208/28.5SEATTLE VORTAC116.8019E

Airport Services

Runway Information

Runway 6/24

Dimensions: 1800 x 40 ft. / 549 x 12 m
Surface: turf
Runway edge lights: low intensity
RUNWAY 6  RUNWAY 24
Traffic pattern: leftright

Runway 16W/34W

Dimensions: 5000 x 100 ft. / 1524 x 30 m
Surface: water
RUNWAY 16W  RUNWAY 34W
Traffic pattern: leftleft

Airport Ownership and Management from official FAA records

Ownership: Privately-owned
Owner: DOLORES FLAHAUT
PO BOX 5081
LACEY, WA 98509-5081
Phone 360-491-5398
Manager: DOLORES FLAHAUT
PO BOX 5081
LACEY, WA 98509-5081
Phone 360-491-5398

Additional Remarks

LNDGS TO EAST ONLY; TKOFS TO WEST ONLY.
FOR CD CTC SEATTLE APCH AT 206-214-4794.
NO LNDGS AFT DARK, LGTS DISCONNECTED.

Instrument Procedures

There are no published instrument procedures at 6WA2.

Some nearby airports with instrument procedures:

KOLM - Olympia Regional Airport (9 nm S)
KGRF - Gray Army Airfield (Joint Base Lewis-McChord) (10 nm E)
KTIW - Tacoma Narrows Airport (14 nm NE)
KTCM - McChord Field Airport (Joint Base Lewis-McChord) (14 nm E)
KSHN - Sanderson Field Airport (15 nm NW)
 
Loc | Ops | Rwys | IFR | FBO | Links
Com | Nav | Svcs | Stats | Notes
Area around 6WA2 (Gower Field Airport)
 
Road maps at: MapQuest Bing Google
 
Aerial photo
WARNING: Photo may not be current or correct
Aerial photo of 6WA2 (Gower Field Airport)
Do you have a better or more recent aerial photo of Gower Field Airport that you would like to share? If so, please send us your photo.

 
Sectional chart

 
Airport distance calculator
Flying to Gower Field Airport? Find the distance to fly.

From to 6WA2

Sunrise and sunset
Times for 30-Nov-2021
 Local
(UTC-8)
 Zulu
(UTC)
Morning civil twilight07:0215:02
Sunrise07:3715:37
Sunset16:2300:23
Evening civil twilight16:5800:58

Current date and time
Zulu (UTC)  30-Nov-2021 17:44:14
Local (UTC-8)  30-Nov-2021 09:44:14
 
METAR
KOLM 
9nm S 
301654Z 21009G16KT 10SM -RA FEW040 BKN050 OVC075 12/10 A3020 RMK AO2 RAB1558 SLP226 P0001 T01170100
KGRF 
11nm E 
301708Z 17010KT 10SM -RA FEW009 FEW022 BKN038 OVC050 12/11 A3019 RMK AO2A SLP228 $
KTIW 
13nm NE 
301738Z 21009G17KT 10SM SCT010 BKN029 OVC044 11/11 A3021 RMK AO2 T01060106
KTCM 
14nm E 
301737Z AUTO 19008KT 10SM -RA SCT024 BKN029 OVC036 12/11 A3022 RMK AO2 RAE11RAB11E11RAB36 CIG 029V036 BKN V SCT SLP238 $
KSHN 
15nm NW 
301727Z AUTO 22010KT 9SM -RA SCT019 OVC028 11/09 A3018 RMK AO2 P0001 T01060094
TAF
KOLM 
9nm S 
301120Z 3012/0112 21009KT 6SM BR VCSH SCT006 BKN025 TEMPO 3012/3016 3SM -RA BR BKN005 OVC010 FM301600 21009KT 5SM -RA BR OVC010 FM302200 22008KT 5SM -RA OVC012 FM010700 21007KT 3SM BR VCSH OVC007
KGRF 
11nm E 
301300Z 3013/0119 20009KT 9999 -SHRA SCT010 OVC020 QNH3014INS BECMG 3015/3016 20010G15KT 9999 -SHRA BKN020 QNH3016INS BECMG 3022/3023 20009KT 9999 -SHRA BKN020 QNH3020INS BECMG 3023/3024 20009KT 9999 NSW BKN030 QNH3015INS TX11/3022Z TN10/3013Z
KTCM 
14nm E 
300500Z 3005/0111 VRB06KT 9999 SCT040 BKN060 QNH3015INS TEMPO 3008/3014 BKN015 BECMG 3013/3014 21012KT 8000 -SHRA BKN012 OVC020 610809 510103 QNH3017INS BECMG 3019/3020 20012G18KT 8000 -SHRA BKN020 OVC040 610904 510106 QNH3018INS BECMG 0105/0106 20010KT 9999 NSW BKN025 OVC050 620909 510102 QNH3019INS TX13/3021Z TN08/3005Z
NOTAMs
Click for the latest NOTAMs
NOTAMs are issued by the DoD/FAA and will open in a separate window not controlled by AirNav.

 

 
 

Would you like to see your business listed on this page?

 If your business provides an interesting product or service to pilots, flight crews, aircraft, or users of the Gower Field Airport, you should consider listing it here.  To start the listing process, click on the button below
 
Add a business
 

Other Pages about Gower Field Airport

Update a link
 
Copyright © AirNav, LLC. All rights reserved. Privacy Policy  Contact